KPBG/PBG METAR and TAF weather

Enter ICAO airport designator
Station Type Date Time Source
KPBG METAR 2021/08/01 15:53 UTC NOAA

KPBG 011553Z AUTO 15005KT 10SM FEW017 SCT100 18/15 A2989 RMK AO2 RAE28 SLP120 P0000 T01780150


Station Type Date Time Source
KPBG Decoded METAR 2021/08/01 15:53 UTC NOAA

PLATTSBURGH INTERNATIONAL AIRPORT, NY, United States (KPBG) 44-39N 073-28W
Aug 01, 2021 - 11:53 AM EDT / 2021.08.01 1553 UTC
Wind: from the SSE (150 degrees) at 6 MPH (5 KT):0
Visibility: 10 mile(s):0
Sky conditions: partly cloudy
Precipitation last hour: A trace
Temperature: 64.0 F (17.8 C)
Dew Point: 59.0 F (15.0 C)
Relative Humidity: 83%
Pressure (altimeter): 29.89 in. Hg (1012 hPa)
ob: KPBG 011553Z AUTO 15005KT 10SM FEW017 SCT100 18/15 A2989 RMK AO2 RAE28 SLP120 P0000 T01780150
cycle: 16

Station Type Date Time Source
KPBG TAF 2021/08/01 12:24 UTC NOAA

TAF KPBG 011120Z 0112/0212 00000KT P6SM VCSH OVC080
FM011400 16005KT 4SM -SHRA BR OVC050
TEMPO 0118/0120 2SM +SHRA BR OVC035
FM012000 VRB04KT 5SM +SHRA BR OVC019
FM020000 00000KT 3SM BR VCSH OVC008

Example: see airport list